sensor_id;sensor_type;location;lat;lon;timestamp;temperature;humidity
37788;DHT22;23627;53.302;-6.362;2023-02-22T00:02:16;9.70;99.90
37788;DHT22;23627;53.302;-6.362;2023-02-22T00:04:52;9.60;99.90
37788;DHT22;23627;53.302;-6.362;2023-02-22T00:07:18;9.70;99.90
37788;DHT22;23627;53.302;-6.362;2023-02-22T00:09:45;9.70;99.90
37788;DHT22;23627;53.302;-6.362;2023-02-22T00:12:11;9.60;99.90
37788;DHT22;23627;53.302;-6.362;2023-02-22T00:14:36;9.60;99.90
37788;DHT22;23627;53.302;-6.362;2023-02-22T00:17:02;9.60;99.90
37788;DHT22;23627;53.302;-6.362;2023-02-22T00:19:28;9.60;99.90
37788;DHT22;23627;53.302;-6.362;2023-02-22T00:21:55;9.60;99.90
37788;DHT22;23627;53.302;-6.362;2023-02-22T00:24:22;9.60;99.90
37788;DHT22;23627;53.302;-6.362;2023-02-22T00:26:49;9.50;99.90
37788;DHT22;23627;53.302;-6.362;2023-02-22T00:29:14;9.50;99.90
37788;DHT22;23627;53.302;-6.362;2023-02-22T00:31:40;9.40;99.90
37788;DHT22;23627;53.302;-6.362;2023-02-22T00:34:05;9.40;99.90
37788;DHT22;23627;53.302;-6.362;2023-02-22T00:36:31;9.30;99.90
37788;DHT22;23627;53.302;-6.362;2023-02-22T00:38:57;9.30;99.90
37788;DHT22;23627;53.302;-6.362;2023-02-22T00:41:22;9.30;99.90
37788;DHT22;23627;53.302;-6.362;2023-02-22T00:43:48;9.30;99.90
37788;DHT22;23627;53.302;-6.362;2023-02-22T00:46:13;9.30;99.90
37788;DHT22;23627;53.302;-6.362;2023-02-22T00:48:39;9.20;99.90
37788;DHT22;23627;53.302;-6.362;2023-02-22T00:51:04;9.20;99.90
37788;DHT22;23627;53.302;-6.362;2023-02-22T00:53:30;9.20;99.90
37788;DHT22;23627;53.302;-6.362;2023-02-22T00:55:56;9.20;99.90
37788;DHT22;23627;53.302;-6.362;2023-02-22T00:58:22;9.10;99.90
37788;DHT22;23627;53.302;-6.362;2023-02-22T01:00:48;9.10;99.90
37788;DHT22;23627;53.302;-6.362;2023-02-22T01:03:16;9.00;99.90
37788;DHT22;23627;53.302;-6.362;2023-02-22T01:05:43;9.00;99.90
37788;DHT22;23627;53.302;-6.362;2023-02-22T01:08:09;9.00;99.90
37788;DHT22;23627;53.302;-6.362;2023-02-22T01:10:36;9.00;99.90
37788;DHT22;23627;53.302;-6.362;2023-02-22T01:13:02;8.90;99.90
37788;DHT22;23627;53.302;-6.362;2023-02-22T01:15:33;8.90;99.90
37788;DHT22;23627;53.302;-6.362;2023-02-22T01:17:59;8.90;99.90
37788;DHT22;23627;53.302;-6.362;2023-02-22T01:20:25;8.90;99.90
37788;DHT22;23627;53.302;-6.362;2023-02-22T01:22:52;8.80;99.90
37788;DHT22;23627;53.302;-6.362;2023-02-22T01:25:22;8.80;99.90
37788;DHT22;23627;53.302;-6.362;2023-02-22T01:27:48;8.80;99.90
37788;DHT22;23627;53.302;-6.362;2023-02-22T01:30:15;8.70;99.90
37788;DHT22;23627;53.302;-6.362;2023-02-22T01:32:41;8.70;99.90
37788;DHT22;23627;53.302;-6.362;2023-02-22T01:35:08;8.70;99.90
37788;DHT22;23627;53.302;-6.362;2023-02-22T01:37:34;8.70;99.90
37788;DHT22;23627;53.302;-6.362;2023-02-22T01:40:00;8.60;99.90
37788;DHT22;23627;53.302;-6.362;2023-02-22T01:42:26;8.60;99.90
37788;DHT22;23627;53.302;-6.362;2023-02-22T01:47:38;8.60;99.90
37788;DHT22;23627;53.302;-6.362;2023-02-22T01:50:03;8.60;99.90
37788;DHT22;23627;53.302;-6.362;2023-02-22T01:52:29;8.60;99.90
37788;DHT22;23627;53.302;-6.362;2023-02-22T01:54:56;8.60;99.90
37788;DHT22;23627;53.302;-6.362;2023-02-22T01:57:22;8.60;99.90
37788;DHT22;23627;53.302;-6.362;2023-02-22T01:59:50;8.60;99.90
37788;DHT22;23627;53.302;-6.362;2023-02-22T02:02:17;8.50;99.90
37788;DHT22;23627;53.302;-6.362;2023-02-22T02:04:43;8.50;99.90
37788;DHT22;23627;53.302;-6.362;2023-02-22T02:07:10;8.50;99.90
37788;DHT22;23627;53.302;-6.362;2023-02-22T02:12:09;8.50;99.90
37788;DHT22;23627;53.302;-6.362;2023-02-22T02:14:35;8.50;99.90
37788;DHT22;23627;53.302;-6.362;2023-02-22T02:17:07;8.50;99.90
37788;DHT22;23627;53.302;-6.362;2023-02-22T02:19:56;8.40;99.90
37788;DHT22;23627;53.302;-6.362;2023-02-22T02:27:22;8.40;99.90
37788;DHT22;23627;53.302;-6.362;2023-02-22T02:30:13;8.40;99.90
37788;DHT22;23627;53.302;-6.362;2023-02-22T02:38:09;8.40;99.90
37788;DHT22;23627;53.302;-6.362;2023-02-22T02:40:38;8.30;99.90
37788;DHT22;23627;53.302;-6.362;2023-02-22T02:43:06;8.30;99.90
37788;DHT22;23627;53.302;-6.362;2023-02-22T02:48:05;8.30;99.90
37788;DHT22;23627;53.302;-6.362;2023-02-22T02:50:34;8.30;99.90
37788;DHT22;23627;53.302;-6.362;2023-02-22T02:53:02;8.30;99.90
37788;DHT22;23627;53.302;-6.362;2023-02-22T02:55:28;8.30;99.90
37788;DHT22;23627;53.302;-6.362;2023-02-22T02:57:55;8.20;99.90
37788;DHT22;23627;53.302;-6.362;2023-02-22T03:00:22;8.20;99.90
37788;DHT22;23627;53.302;-6.362;2023-02-22T03:03:06;8.20;99.90
37788;DHT22;23627;53.302;-6.362;2023-02-22T03:13:41;8.10;99.90
37788;DHT22;23627;53.302;-6.362;2023-02-22T03:21:46;8.00;99.90
37788;DHT22;23627;53.302;-6.362;2023-02-22T03:24:18;8.10;99.90
37788;DHT22;23627;53.302;-6.362;2023-02-22T03:26:46;8.00;99.90
37788;DHT22;23627;53.302;-6.362;2023-02-22T03:29:14;8.00;99.90
37788;DHT22;23627;53.302;-6.362;2023-02-22T03:31:43;8.00;99.90
37788;DHT22;23627;53.302;-6.362;2023-02-22T03:34:14;8.00;99.90
37788;DHT22;23627;53.302;-6.362;2023-02-22T03:36:41;8.00;99.90
37788;DHT22;23627;53.302;-6.362;2023-02-22T03:39:10;7.90;99.90
37788;DHT22;23627;53.302;-6.362;2023-02-22T03:41:36;7.90;99.90
37788;DHT22;23627;53.302;-6.362;2023-02-22T03:44:05;7.90;99.90
37788;DHT22;23627;53.302;-6.362;2023-02-22T03:46:31;7.90;99.90
37788;DHT22;23627;53.302;-6.362;2023-02-22T03:51:24;7.90;99.90
37788;DHT22;23627;53.302;-6.362;2023-02-22T03:53:50;7.90;99.90
37788;DHT22;23627;53.302;-6.362;2023-02-22T03:56:21;7.90;99.90
37788;DHT22;23627;53.302;-6.362;2023-02-22T03:58:47;7.80;99.90
37788;DHT22;23627;53.302;-6.362;2023-02-22T04:01:13;7.80;99.90
37788;DHT22;23627;53.302;-6.362;2023-02-22T04:03:39;7.80;99.90
37788;DHT22;23627;53.302;-6.362;2023-02-22T04:06:06;7.80;99.90
37788;DHT22;23627;53.302;-6.362;2023-02-22T04:08:32;7.80;99.90
37788;DHT22;23627;53.302;-6.362;2023-02-22T04:10:58;7.80;99.90
37788;DHT22;23627;53.302;-6.362;2023-02-22T04:13:23;7.80;99.90
37788;DHT22;23627;53.302;-6.362;2023-02-22T04:15:49;7.70;99.90
37788;DHT22;23627;53.302;-6.362;2023-02-22T04:18:15;7.70;99.90
37788;DHT22;23627;53.302;-6.362;2023-02-22T04:20:40;7.70;99.90
37788;DHT22;23627;53.302;-6.362;2023-02-22T04:23:06;7.70;99.90
37788;DHT22;23627;53.302;-6.362;2023-02-22T04:25:31;7.70;99.90
37788;DHT22;23627;53.302;-6.362;2023-02-22T04:27:57;7.70;99.90
37788;DHT22;23627;53.302;-6.362;2023-02-22T04:30:23;7.70;99.90
37788;DHT22;23627;53.302;-6.362;2023-02-22T04:32:48;7.70;99.90
37788;DHT22;23627;53.302;-6.362;2023-02-22T04:35:14;7.60;99.90
37788;DHT22;23627;53.302;-6.362;2023-02-22T04:37:39;7.60;99.90
37788;DHT22;23627;53.302;-6.362;2023-02-22T04:40:05;7.60;99.90
37788;DHT22;23627;53.302;-6.362;2023-02-22T04:42:34;7.60;99.90
37788;DHT22;23627;53.302;-6.362;2023-02-22T04:45:00;7.60;99.90
37788;DHT22;23627;53.302;-6.362;2023-02-22T04:47:26;7.60;99.90
37788;DHT22;23627;53.302;-6.362;2023-02-22T04:49:51;7.60;99.90
37788;DHT22;23627;53.302;-6.362;2023-02-22T04:52:17;7.50;99.90
37788;DHT22;23627;53.302;-6.362;2023-02-22T04:54:43;7.50;99.90
37788;DHT22;23627;53.302;-6.362;2023-02-22T04:57:08;7.50;99.90
37788;DHT22;23627;53.302;-6.362;2023-02-22T04:59:34;7.50;99.90
37788;DHT22;23627;53.302;-6.362;2023-02-22T05:01:59;7.50;99.90
37788;DHT22;23627;53.302;-6.362;2023-02-22T05:04:25;7.50;99.90
37788;DHT22;23627;53.302;-6.362;2023-02-22T05:06:51;7.40;99.90
37788;DHT22;23627;53.302;-6.362;2023-02-22T05:09:16;7.50;99.90
37788;DHT22;23627;53.302;-6.362;2023-02-22T05:11:42;7.40;99.90
37788;DHT22;23627;53.302;-6.362;2023-02-22T05:14:07;7.40;99.90
37788;DHT22;23627;53.302;-6.362;2023-02-22T05:16:33;7.40;99.90
37788;DHT22;23627;53.302;-6.362;2023-02-22T05:18:58;7.40;99.90
37788;DHT22;23627;53.302;-6.362;2023-02-22T05:21:24;7.30;99.90
37788;DHT22;23627;53.302;-6.362;2023-02-22T05:23:49;7.30;99.90
37788;DHT22;23627;53.302;-6.362;2023-02-22T05:26:15;7.30;99.90
37788;DHT22;23627;53.302;-6.362;2023-02-22T05:28:41;7.30;99.90
37788;DHT22;23627;53.302;-6.362;2023-02-22T05:31:06;7.30;99.90
37788;DHT22;23627;53.302;-6.362;2023-02-22T05:33:32;7.30;99.90
37788;DHT22;23627;53.302;-6.362;2023-02-22T05:35:57;7.30;99.90
37788;DHT22;23627;53.302;-6.362;2023-02-22T05:38:23;7.30;99.90
37788;DHT22;23627;53.302;-6.362;2023-02-22T05:40:48;7.30;99.90
37788;DHT22;23627;53.302;-6.362;2023-02-22T05:43:14;7.30;99.90
37788;DHT22;23627;53.302;-6.362;2023-02-22T05:45:40;7.20;99.90
37788;DHT22;23627;53.302;-6.362;2023-02-22T05:48:06;7.20;99.90
37788;DHT22;23627;53.302;-6.362;2023-02-22T05:50:32;7.20;99.90
37788;DHT22;23627;53.302;-6.362;2023-02-22T05:52:58;7.20;99.90
37788;DHT22;23627;53.302;-6.362;2023-02-22T05:55:23;7.20;99.90
37788;DHT22;23627;53.302;-6.362;2023-02-22T05:57:49;7.20;99.90
37788;DHT22;23627;53.302;-6.362;2023-02-22T06:00:17;7.20;99.90
37788;DHT22;23627;53.302;-6.362;2023-02-22T06:02:43;7.10;99.90
37788;DHT22;23627;53.302;-6.362;2023-02-22T06:05:08;7.10;99.90
37788;DHT22;23627;53.302;-6.362;2023-02-22T06:07:34;7.10;99.90
37788;DHT22;23627;53.302;-6.362;2023-02-22T06:09:59;7.10;99.90
37788;DHT22;23627;53.302;-6.362;2023-02-22T06:12:25;7.10;99.90
37788;DHT22;23627;53.302;-6.362;2023-02-22T06:14:51;7.10;99.90
37788;DHT22;23627;53.302;-6.362;2023-02-22T06:17:17;7.10;99.90
37788;DHT22;23627;53.302;-6.362;2023-02-22T06:19:43;7.10;99.90
37788;DHT22;23627;53.302;-6.362;2023-02-22T06:22:16;7.10;99.90
37788;DHT22;23627;53.302;-6.362;2023-02-22T06:24:42;7.10;99.90
37788;DHT22;23627;53.302;-6.362;2023-02-22T06:27:07;7.10;99.90
37788;DHT22;23627;53.302;-6.362;2023-02-22T06:29:33;7.00;99.90
37788;DHT22;23627;53.302;-6.362;2023-02-22T06:31:58;7.00;99.90
37788;DHT22;23627;53.302;-6.362;2023-02-22T06:34:24;7.00;99.90
37788;DHT22;23627;53.302;-6.362;2023-02-22T06:36:49;7.00;99.90
37788;DHT22;23627;53.302;-6.362;2023-02-22T06:39:15;7.00;99.90
37788;DHT22;23627;53.302;-6.362;2023-02-22T06:41:42;7.00;99.90
37788;DHT22;23627;53.302;-6.362;2023-02-22T06:44:08;7.00;99.90
37788;DHT22;23627;53.302;-6.362;2023-02-22T06:46:35;7.00;99.90
37788;DHT22;23627;53.302;-6.362;2023-02-22T06:49:00;7.00;99.90
37788;DHT22;23627;53.302;-6.362;2023-02-22T06:51:26;7.00;99.90
37788;DHT22;23627;53.302;-6.362;2023-02-22T06:53:52;6.90;99.90
37788;DHT22;23627;53.302;-6.362;2023-02-22T06:56:18;6.90;99.90
37788;DHT22;23627;53.302;-6.362;2023-02-22T06:58:43;6.90;99.90
37788;DHT22;23627;53.302;-6.362;2023-02-22T07:01:09;6.90;99.90
37788;DHT22;23627;53.302;-6.362;2023-02-22T07:03:34;6.90;99.90
37788;DHT22;23627;53.302;-6.362;2023-02-22T07:06:00;6.80;99.90
37788;DHT22;23627;53.302;-6.362;2023-02-22T07:08:26;6.80;99.90
37788;DHT22;23627;53.302;-6.362;2023-02-22T07:10:52;6.80;99.90
37788;DHT22;23627;53.302;-6.362;2023-02-22T07:13:18;6.80;99.90
37788;DHT22;23627;53.302;-6.362;2023-02-22T07:15:44;6.80;99.90
37788;DHT22;23627;53.302;-6.362;2023-02-22T07:18:09;6.80;99.90
37788;DHT22;23627;53.302;-6.362;2023-02-22T07:20:36;6.70;99.90
37788;DHT22;23627;53.302;-6.362;2023-02-22T07:23:02;6.70;99.90
37788;DHT22;23627;53.302;-6.362;2023-02-22T07:25:28;6.70;99.90
37788;DHT22;23627;53.302;-6.362;2023-02-22T07:27:53;6.70;99.90
37788;DHT22;23627;53.302;-6.362;2023-02-22T07:30:23;6.70;99.90
37788;DHT22;23627;53.302;-6.362;2023-02-22T07:32:50;6.70;99.90
37788;DHT22;23627;53.302;-6.362;2023-02-22T07:35:16;6.70;99.90
37788;DHT22;23627;53.302;-6.362;2023-02-22T07:37:42;6.70;99.90
37788;DHT22;23627;53.302;-6.362;2023-02-22T07:40:09;6.60;99.90
37788;DHT22;23627;53.302;-6.362;2023-02-22T07:42:58;6.60;99.90
37788;DHT22;23627;53.302;-6.362;2023-02-22T07:45:23;6.60;99.90
37788;DHT22;23627;53.302;-6.362;2023-02-22T07:47:49;6.50;99.90
37788;DHT22;23627;53.302;-6.362;2023-02-22T07:50:15;6.50;99.90
37788;DHT22;23627;53.302;-6.362;2023-02-22T07:52:43;6.50;99.90
37788;DHT22;23627;53.302;-6.362;2023-02-22T07:55:09;6.50;99.90
37788;DHT22;23627;53.302;-6.362;2023-02-22T07:57:35;6.50;99.90
37788;DHT22;23627;53.302;-6.362;2023-02-22T08:00:00;6.40;99.90
37788;DHT22;23627;53.302;-6.362;2023-02-22T08:02:26;6.40;99.90
37788;DHT22;23627;53.302;-6.362;2023-02-22T08:04:51;6.40;99.90
37788;DHT22;23627;53.302;-6.362;2023-02-22T08:07:17;6.40;99.90
37788;DHT22;23627;53.302;-6.362;2023-02-22T08:09:43;6.30;99.90
37788;DHT22;23627;53.302;-6.362;2023-02-22T08:12:08;6.30;99.90
37788;DHT22;23627;53.302;-6.362;2023-02-22T08:14:34;6.30;99.90
37788;DHT22;23627;53.302;-6.362;2023-02-22T08:16:59;6.30;99.90
37788;DHT22;23627;53.302;-6.362;2023-02-22T08:19:25;6.30;99.90
37788;DHT22;23627;53.302;-6.362;2023-02-22T08:21:50;6.30;99.90
37788;DHT22;23627;53.302;-6.362;2023-02-22T08:24:16;6.30;99.90
37788;DHT22;23627;53.302;-6.362;2023-02-22T08:26:45;6.20;99.90
37788;DHT22;23627;53.302;-6.362;2023-02-22T08:29:11;6.20;99.90
37788;DHT22;23627;53.302;-6.362;2023-02-22T08:31:38;6.20;99.90
37788;DHT22;23627;53.302;-6.362;2023-02-22T08:34:04;6.20;99.90
37788;DHT22;23627;53.302;-6.362;2023-02-22T08:36:30;6.20;99.90
37788;DHT22;23627;53.302;-6.362;2023-02-22T08:38:57;6.20;99.90
37788;DHT22;23627;53.302;-6.362;2023-02-22T08:41:22;6.20;99.90
37788;DHT22;23627;53.302;-6.362;2023-02-22T08:43:48;6.20;99.90
37788;DHT22;23627;53.302;-6.362;2023-02-22T08:46:15;6.20;99.90
37788;DHT22;23627;53.302;-6.362;2023-02-22T08:48:50;6.20;99.90
37788;DHT22;23627;53.302;-6.362;2023-02-22T08:51:16;6.20;99.90
37788;DHT22;23627;53.302;-6.362;2023-02-22T08:53:42;6.20;99.90
37788;DHT22;23627;53.302;-6.362;2023-02-22T08:56:08;6.30;99.90
37788;DHT22;23627;53.302;-6.362;2023-02-22T08:58:34;6.30;99.90
37788;DHT22;23627;53.302;-6.362;2023-02-22T09:00:59;6.40;99.90
37788;DHT22;23627;53.302;-6.362;2023-02-22T09:03:25;6.50;99.90
37788;DHT22;23627;53.302;-6.362;2023-02-22T09:05:50;6.50;99.90
37788;DHT22;23627;53.302;-6.362;2023-02-22T09:08:16;6.60;99.90
37788;DHT22;23627;53.302;-6.362;2023-02-22T09:10:42;6.60;99.90
37788;DHT22;23627;53.302;-6.362;2023-02-22T09:13:09;6.60;99.90
37788;DHT22;23627;53.302;-6.362;2023-02-22T09:15:35;6.60;99.90
37788;DHT22;23627;53.302;-6.362;2023-02-22T09:18:01;6.70;99.90
37788;DHT22;23627;53.302;-6.362;2023-02-22T09:20:27;6.80;99.90
37788;DHT22;23627;53.302;-6.362;2023-02-22T09:22:53;6.90;99.90
37788;DHT22;23627;53.302;-6.362;2023-02-22T09:25:19;7.00;99.90
37788;DHT22;23627;53.302;-6.362;2023-02-22T09:27:46;7.10;99.90
37788;DHT22;23627;53.302;-6.362;2023-02-22T09:30:16;7.10;99.90
37788;DHT22;23627;53.302;-6.362;2023-02-22T09:32:42;7.20;99.90
37788;DHT22;23627;53.302;-6.362;2023-02-22T09:35:07;7.20;99.90
37788;DHT22;23627;53.302;-6.362;2023-02-22T09:37:33;7.30;99.90
37788;DHT22;23627;53.302;-6.362;2023-02-22T09:39:59;7.30;99.90
37788;DHT22;23627;53.302;-6.362;2023-02-22T09:45:11;7.40;99.90
37788;DHT22;23627;53.302;-6.362;2023-02-22T09:47:42;7.40;99.90
37788;DHT22;23627;53.302;-6.362;2023-02-22T09:50:15;7.50;99.90
37788;DHT22;23627;53.302;-6.362;2023-02-22T09:57:33;7.50;99.90
37788;DHT22;23627;53.302;-6.362;2023-02-22T10:00:01;7.50;99.90
37788;DHT22;23627;53.302;-6.362;2023-02-22T10:07:46;7.50;99.90
37788;DHT22;23627;53.302;-6.362;2023-02-22T10:10:20;7.50;99.90
37788;DHT22;23627;53.302;-6.362;2023-02-22T10:23:00;7.60;99.90
37788;DHT22;23627;53.302;-6.362;2023-02-22T10:25:29;7.60;99.90
37788;DHT22;23627;53.302;-6.362;2023-02-22T10:28:00;7.70;99.90
37788;DHT22;23627;53.302;-6.362;2023-02-22T10:33:18;7.80;99.90
37788;DHT22;23627;53.302;-6.362;2023-02-22T10:35:45;7.80;99.90
37788;DHT22;23627;53.302;-6.362;2023-02-22T10:38:12;7.90;99.90
37788;DHT22;23627;53.302;-6.362;2023-02-22T10:40:42;7.90;99.90
37788;DHT22;23627;53.302;-6.362;2023-02-22T10:43:08;8.00;99.90
37788;DHT22;23627;53.302;-6.362;2023-02-22T10:45:35;8.00;99.90
37788;DHT22;23627;53.302;-6.362;2023-02-22T10:48:09;8.00;99.90
37788;DHT22;23627;53.302;-6.362;2023-02-22T10:50:37;8.10;99.90
37788;DHT22;23627;53.302;-6.362;2023-02-22T10:53:05;8.10;99.90
37788;DHT22;23627;53.302;-6.362;2023-02-22T10:55:31;8.20;99.90
37788;DHT22;23627;53.302;-6.362;2023-02-22T10:58:01;8.20;99.90
37788;DHT22;23627;53.302;-6.362;2023-02-22T11:00:30;8.20;99.90
37788;DHT22;23627;53.302;-6.362;2023-02-22T11:02:57;8.20;99.90
37788;DHT22;23627;53.302;-6.362;2023-02-22T11:05:36;8.20;99.90
37788;DHT22;23627;53.302;-6.362;2023-02-22T11:10:40;8.20;99.90
37788;DHT22;23627;53.302;-6.362;2023-02-22T11:15:42;8.30;99.90
37788;DHT22;23627;53.302;-6.362;2023-02-22T11:18:20;8.40;99.90
37788;DHT22;23627;53.302;-6.362;2023-02-22T11:20:46;8.40;99.90
37788;DHT22;23627;53.302;-6.362;2023-02-22T11:23:12;8.40;99.90
37788;DHT22;23627;53.302;-6.362;2023-02-22T11:25:39;8.40;99.90
37788;DHT22;23627;53.302;-6.362;2023-02-22T11:28:11;8.50;99.90
37788;DHT22;23627;53.302;-6.362;2023-02-22T11:30:39;8.50;99.90
37788;DHT22;23627;53.302;-6.362;2023-02-22T11:35:55;8.50;99.90
37788;DHT22;23627;53.302;-6.362;2023-02-22T11:38:25;8.50;99.90
37788;DHT22;23627;53.302;-6.362;2023-02-22T11:43:38;8.50;99.90
37788;DHT22;23627;53.302;-6.362;2023-02-22T11:46:26;8.50;99.90
37788;DHT22;23627;53.302;-6.362;2023-02-22T11:48:57;8.60;99.90
37788;DHT22;23627;53.302;-6.362;2023-02-22T11:56:35;8.60;99.90
37788;DHT22;23627;53.302;-6.362;2023-02-22T11:59:13;8.60;99.90
37788;DHT22;23627;53.302;-6.362;2023-02-22T12:01:56;8.60;99.90
37788;DHT22;23627;53.302;-6.362;2023-02-22T12:07:12;8.60;99.90
37788;DHT22;23627;53.302;-6.362;2023-02-22T12:09:46;8.60;99.90
37788;DHT22;23627;53.302;-6.362;2023-02-22T12:14:57;8.70;99.90
37788;DHT22;23627;53.302;-6.362;2023-02-22T12:17:32;8.70;99.90
37788;DHT22;23627;53.302;-6.362;2023-02-22T12:22:32;8.90;99.90
37788;DHT22;23627;53.302;-6.362;2023-02-22T12:27:26;9.00;99.90
37788;DHT22;23627;53.302;-6.362;2023-02-22T12:29:57;9.00;99.90
37788;DHT22;23627;53.302;-6.362;2023-02-22T12:32:37;9.10;99.90
37788;DHT22;23627;53.302;-6.362;2023-02-22T12:35:14;9.10;99.90
37788;DHT22;23627;53.302;-6.362;2023-02-22T12:45:10;9.20;99.90
37788;DHT22;23627;53.302;-6.362;2023-02-22T12:47:52;9.20;99.90
37788;DHT22;23627;53.302;-6.362;2023-02-22T12:50:24;9.20;99.90
37788;DHT22;23627;53.302;-6.362;2023-02-22T12:52:56;9.30;99.90
37788;DHT22;23627;53.302;-6.362;2023-02-22T12:55:23;9.30;99.90
37788;DHT22;23627;53.302;-6.362;2023-02-22T12:57:58;9.40;99.90
37788;DHT22;23627;53.302;-6.362;2023-02-22T13:00:39;9.40;99.90
37788;DHT22;23627;53.302;-6.362;2023-02-22T13:05:39;9.40;99.90
37788;DHT22;23627;53.302;-6.362;2023-02-22T13:13:10;9.50;99.90
37788;DHT22;23627;53.302;-6.362;2023-02-22T13:18:08;9.50;99.90
37788;DHT22;23627;53.302;-6.362;2023-02-22T13:20:47;9.50;99.90
37788;DHT22;23627;53.302;-6.362;2023-02-22T13:23:17;9.50;99.90
37788;DHT22;23627;53.302;-6.362;2023-02-22T13:25:52;9.50;99.90
37788;DHT22;23627;53.302;-6.362;2023-02-22T13:28:25;9.60;99.90
37788;DHT22;23627;53.302;-6.362;2023-02-22T13:31:30;9.50;99.90
37788;DHT22;23627;53.302;-6.362;2023-02-22T13:36:33;9.60;99.90
37788;DHT22;23627;53.302;-6.362;2023-02-22T13:41:42;9.60;99.90
37788;DHT22;23627;53.302;-6.362;2023-02-22T13:49:20;9.50;99.90
37788;DHT22;23627;53.302;-6.362;2023-02-22T13:51:52;9.40;99.90
37788;DHT22;23627;53.302;-6.362;2023-02-22T13:57:02;9.30;99.90
37788;DHT22;23627;53.302;-6.362;2023-02-22T13:59:35;9.30;99.90
37788;DHT22;23627;53.302;-6.362;2023-02-22T14:02:02;9.30;99.90
37788;DHT22;23627;53.302;-6.362;2023-02-22T14:06:55;9.20;99.90
37788;DHT22;23627;53.302;-6.362;2023-02-22T14:10:33;9.30;99.90
37788;DHT22;23627;53.302;-6.362;2023-02-22T14:13:01;9.30;99.90
37788;DHT22;23627;53.302;-6.362;2023-02-22T14:15:17;9.30;99.90
37788;DHT22;23627;53.302;-6.362;2023-02-22T14:20:40;9.30;99.90
37788;DHT22;23627;53.302;-6.362;2023-02-22T14:25:47;9.30;99.90
37788;DHT22;23627;53.302;-6.362;2023-02-22T14:31:14;9.30;99.90
37788;DHT22;23627;53.302;-6.362;2023-02-22T14:36:14;9.30;99.90
37788;DHT22;23627;53.302;-6.362;2023-02-22T14:38:41;9.30;99.90
37788;DHT22;23627;53.302;-6.362;2023-02-22T14:41:08;9.30;99.90
37788;DHT22;23627;53.302;-6.362;2023-02-22T14:43:34;9.30;99.90
37788;DHT22;23627;53.302;-6.362;2023-02-22T14:46:00;9.30;99.90
37788;DHT22;23627;53.302;-6.362;2023-02-22T14:48:30;9.30;99.90
37788;DHT22;23627;53.302;-6.362;2023-02-22T14:51:23;9.30;99.90
37788;DHT22;23627;53.302;-6.362;2023-02-22T14:54:01;9.30;99.90
37788;DHT22;23627;53.302;-6.362;2023-02-22T14:56:45;9.30;99.90
37788;DHT22;23627;53.302;-6.362;2023-02-22T14:59:22;9.30;99.90
37788;DHT22;23627;53.302;-6.362;2023-02-22T15:04:53;9.20;99.90
37788;DHT22;23627;53.302;-6.362;2023-02-22T15:07:25;9.30;99.90
37788;DHT22;23627;53.302;-6.362;2023-02-22T15:10:14;9.20;99.90
37788;DHT22;23627;53.302;-6.362;2023-02-22T15:12:42;9.20;99.90
37788;DHT22;23627;53.302;-6.362;2023-02-22T15:15:19;9.20;99.90
37788;DHT22;23627;53.302;-6.362;2023-02-22T15:17:53;9.20;99.90
37788;DHT22;23627;53.302;-6.362;2023-02-22T15:20:19;9.10;99.90
37788;DHT22;23627;53.302;-6.362;2023-02-22T15:22:45;9.10;99.90
37788;DHT22;23627;53.302;-6.362;2023-02-22T15:25:12;9.10;99.90
37788;DHT22;23627;53.302;-6.362;2023-02-22T15:27:38;9.10;99.90
37788;DHT22;23627;53.302;-6.362;2023-02-22T15:30:15;9.10;99.90
37788;DHT22;23627;53.302;-6.362;2023-02-22T15:32:42;9.20;99.90
37788;DHT22;23627;53.302;-6.362;2023-02-22T15:35:24;9.20;99.90
37788;DHT22;23627;53.302;-6.362;2023-02-22T15:38:01;9.20;99.90
37788;DHT22;23627;53.302;-6.362;2023-02-22T15:40:27;9.20;99.90
37788;DHT22;23627;53.302;-6.362;2023-02-22T15:43:01;9.20;99.90
37788;DHT22;23627;53.302;-6.362;2023-02-22T15:45:27;9.20;99.90
37788;DHT22;23627;53.302;-6.362;2023-02-22T15:47:53;9.20;99.90
37788;DHT22;23627;53.302;-6.362;2023-02-22T15:55:17;9.10;99.90
37788;DHT22;23627;53.302;-6.362;2023-02-22T15:57:43;9.10;99.90
37788;DHT22;23627;53.302;-6.362;2023-02-22T16:00:19;9.00;99.90
37788;DHT22;23627;53.302;-6.362;2023-02-22T16:02:45;9.00;99.90
37788;DHT22;23627;53.302;-6.362;2023-02-22T16:05:12;8.90;99.90
37788;DHT22;23627;53.302;-6.362;2023-02-22T16:07:38;8.90;99.90
37788;DHT22;23627;53.302;-6.362;2023-02-22T16:10:24;8.90;99.90
37788;DHT22;23627;53.302;-6.362;2023-02-22T16:13:06;9.00;99.90
37788;DHT22;23627;53.302;-6.362;2023-02-22T16:15:33;9.10;99.90
37788;DHT22;23627;53.302;-6.362;2023-02-22T16:20:43;9.10;99.90
37788;DHT22;23627;53.302;-6.362;2023-02-22T16:23:21;9.00;99.90
37788;DHT22;23627;53.302;-6.362;2023-02-22T16:25:59;8.80;99.90
37788;DHT22;23627;53.302;-6.362;2023-02-22T16:28:26;8.70;99.90
37788;DHT22;23627;53.302;-6.362;2023-02-22T16:30:58;8.60;99.90
37788;DHT22;23627;53.302;-6.362;2023-02-22T16:33:24;8.50;99.90
37788;DHT22;23627;53.302;-6.362;2023-02-22T16:35:54;8.40;99.90
37788;DHT22;23627;53.302;-6.362;2023-02-22T16:38:21;8.30;99.90
37788;DHT22;23627;53.302;-6.362;2023-02-22T16:40:48;8.30;99.90
37788;DHT22;23627;53.302;-6.362;2023-02-22T16:43:17;8.30;99.90
37788;DHT22;23627;53.302;-6.362;2023-02-22T16:45:43;8.40;99.90
37788;DHT22;23627;53.302;-6.362;2023-02-22T16:51:01;8.40;99.90
37788;DHT22;23627;53.302;-6.362;2023-02-22T16:53:30;8.40;99.90
37788;DHT22;23627;53.302;-6.362;2023-02-22T16:55:59;8.40;99.90
37788;DHT22;23627;53.302;-6.362;2023-02-22T16:58:26;8.40;99.90
37788;DHT22;23627;53.302;-6.362;2023-02-22T17:00:53;8.30;99.90
37788;DHT22;23627;53.302;-6.362;2023-02-22T17:03:18;8.30;99.90
37788;DHT22;23627;53.302;-6.362;2023-02-22T17:05:44;8.30;99.90
37788;DHT22;23627;53.302;-6.362;2023-02-22T17:08:10;8.20;99.90
37788;DHT22;23627;53.302;-6.362;2023-02-22T17:10:36;8.20;99.90
37788;DHT22;23627;53.302;-6.362;2023-02-22T17:13:01;8.10;99.90
37788;DHT22;23627;53.302;-6.362;2023-02-22T17:15:29;8.10;99.90
37788;DHT22;23627;53.302;-6.362;2023-02-22T17:17:57;8.00;99.90
37788;DHT22;23627;53.302;-6.362;2023-02-22T17:20:23;8.00;99.90
37788;DHT22;23627;53.302;-6.362;2023-02-22T17:22:58;7.90;99.90
37788;DHT22;23627;53.302;-6.362;2023-02-22T17:25:28;7.80;99.90
37788;DHT22;23627;53.302;-6.362;2023-02-22T17:27:55;7.80;99.90
37788;DHT22;23627;53.302;-6.362;2023-02-22T17:30:28;7.70;99.90
37788;DHT22;23627;53.302;-6.362;2023-02-22T17:32:55;7.70;99.90
37788;DHT22;23627;53.302;-6.362;2023-02-22T17:35:31;7.60;99.90
37788;DHT22;23627;53.302;-6.362;2023-02-22T17:37:58;7.60;99.90
37788;DHT22;23627;53.302;-6.362;2023-02-22T17:40:25;7.50;99.90
37788;DHT22;23627;53.302;-6.362;2023-02-22T17:42:50;7.50;99.90
37788;DHT22;23627;53.302;-6.362;2023-02-22T17:45:22;7.50;99.90
37788;DHT22;23627;53.302;-6.362;2023-02-22T17:47:49;7.40;99.90
37788;DHT22;23627;53.302;-6.362;2023-02-22T17:50:15;7.40;99.90
37788;DHT22;23627;53.302;-6.362;2023-02-22T17:52:41;7.30;99.90
37788;DHT22;23627;53.302;-6.362;2023-02-22T17:55:08;7.30;99.90
37788;DHT22;23627;53.302;-6.362;2023-02-22T17:57:34;7.30;99.90
37788;DHT22;23627;53.302;-6.362;2023-02-22T18:00:00;7.30;99.90
37788;DHT22;23627;53.302;-6.362;2023-02-22T18:02:26;7.20;99.90